Time;durP1;ratioP1;P1;durP2;ratioP2;P2;SDS_P1;SDS_P2;PMS_P1;PMS_P2;Temp;Humidity;BMP_temperature;BMP_pressure;BME280_temperature;BME280_humidity;BME280_pressure;Samples;Min_cycle;Max_cycle;Signal;HPM_P1;HPM_P2
2023/01/18 00:03:26;;;;;;;6.60;4.57;;;;;;;-1.61;100.00;99126.91;10442831;28;20090;-63
2023/01/18 00:08:28;;;;;;;6.35;5.22;;;;;;;-1.62;100.00;99128.75;10461645;28;20037;-63
2023/01/18 00:13:29;;;;;;;7.72;5.80;;;;;;;-1.71;100.00;99117.28;10462867;28;20053;-64
2023/01/18 00:18:30;;;;;;;7.25;4.57;;;;;;;-1.64;100.00;99128.91;10460647;28;20430;-63
2023/01/18 00:23:30;;;;;;;11.45;5.55;;;;;;;-1.64;100.00;99128.06;10461460;28;20028;-63
2023/01/18 00:28:31;;;;;;;7.75;5.88;;;;;;;-1.61;100.00;99125.09;10460921;28;20037;-63
2023/01/18 00:33:31;;;;;;;13.55;5.88;;;;;;;-1.59;100.00;99125.78;10460593;28;20075;-63
2023/01/18 00:38:31;;;;;;;7.75;4.75;;;;;;;-1.64;100.00;99123.59;10443588;28;20098;-64
2023/01/18 00:43:38;;;;;;;4.43;3.95;;;;;;;-1.56;100.00;99109.53;10459598;28;20044;-63
2023/01/18 00:48:39;;;;;;;5.05;4.35;;;;;;;-1.47;100.00;99113.84;10460390;28;20120;-63
2023/01/18 00:53:39;;;;;;;6.13;3.97;;;;;;;-1.41;100.00;99112.34;10441570;28;20533;-64
2023/01/18 00:58:40;;;;;;;6.70;5.18;;;;;;;-1.30;100.00;99109.38;10441706;28;20057;-62
2023/01/18 01:08:59;;;;;;;6.28;4.63;;;;;;;-1.22;100.00;99117.31;10459044;28;20060;-64
2023/01/18 01:29:56;;;;;;;5.10;4.65;;;;;;;-1.25;100.00;99136.25;10457490;28;20037;-63
2023/01/18 01:34:58;;;;;;;5.50;4.40;;;;;;;-1.25;100.00;99135.41;10458055;28;20037;-62
2023/01/18 01:39:58;;;;;;;5.75;3.80;;;;;;;-1.23;100.00;99136.09;10439456;28;20485;-63
2023/01/18 01:44:58;;;;;;;6.28;5.05;;;;;;;-1.30;100.00;99135.09;10457736;28;20036;-63
2023/01/18 01:50:06;;;;;;;8.90;5.88;;;;;;;-1.42;100.00;99140.72;10457331;28;20488;-62
2023/01/18 01:55:42;;;;;;;11.27;4.90;;;;;;;-1.49;100.00;99147.69;10439415;28;20033;-64
2023/01/18 02:00:43;;;;;;;6.13;4.60;;;;;;;-1.51;100.00;99149.66;10358815;28;20525;-63
2023/01/18 02:05:46;;;;;;;9.18;4.85;;;;;;;-1.55;100.00;99147.50;10438962;28;20028;-63
2023/01/18 02:10:47;;;;;;;6.28;5.32;;;;;;;-1.54;100.00;99146.50;10421906;28;20040;-63
2023/01/18 02:15:55;;;;;;;9.50;5.00;;;;;;;-1.54;100.00;99149.97;10456714;28;20112;-63
2023/01/18 02:21:30;;;;;;;5.05;4.57;;;;;;;-1.43;100.00;99154.16;10423733;28;20025;-63
2023/01/18 02:26:51;;;;;;;9.23;6.20;;;;;;;-1.42;100.00;99158.47;10441218;28;20041;-62
2023/01/18 02:32:02;;;;;;;5.63;5.07;;;;;;;-1.44;100.00;99165.75;10439634;28;20040;-63
2023/01/18 02:37:17;;;;;;;8.40;5.18;;;;;;;-1.26;100.00;99177.09;10428659;28;20495;-64
2023/01/18 02:47:37;;;;;;;5.53;4.40;;;;;;;-1.44;100.00;99174.56;10448715;28;20033;-63
2023/01/18 02:52:46;;;;;;;5.40;4.78;;;;;;;-1.46;100.00;99178.38;10464150;28;20037;-64
2023/01/18 02:57:46;;;;;;;5.63;4.32;;;;;;;-1.33;100.00;99180.56;10447528;28;20059;-63
2023/01/18 03:02:47;;;;;;;7.70;5.43;;;;;;;-1.18;100.00;99179.75;10446009;28;20028;-64
2023/01/18 03:07:52;;;;;;;8.27;4.78;;;;;;;-1.13;100.00;99173.13;10445641;28;20068;-64
2023/01/18 03:12:58;;;;;;;7.28;4.63;;;;;;;-1.23;100.00;99166.13;10464389;28;20033;-63
2023/01/18 03:18:10;;;;;;;9.90;5.65;;;;;;;-1.29;100.00;99174.75;10454536;28;20044;-63
2023/01/18 03:33:58;;;;;;;4.57;4.18;;;;;;;-1.17;100.00;99176.09;10462491;28;20037;-64
2023/01/18 03:39:09;;;;;;;5.70;5.10;;;;;;;-1.00;100.00;99176.94;10429286;28;20054;-64
2023/01/18 03:44:13;;;;;;;7.75;5.20;;;;;;;-1.03;100.00;99173.78;10443674;28;20393;-63
2023/01/18 03:49:13;;;;;;;4.75;3.83;;;;;;;-0.96;100.00;99174.78;10426827;28;20041;-64
2023/01/18 03:54:19;;;;;;;5.35;4.78;;;;;;;-0.88;100.00;99188.06;10462269;28;20532;-64
2023/01/18 03:59:20;;;;;;;9.43;5.28;;;;;;;-0.87;100.00;99187.06;10428369;28;20467;-64
2023/01/18 04:04:20;;;;;;;5.32;4.93;;;;;;;-0.89;100.00;99189.09;10461025;28;20065;-65
2023/01/18 04:09:21;;;;;;;8.32;3.72;;;;;;;-0.88;100.00;99192.56;10444373;28;20044;-63
2023/01/18 04:14:21;;;;;;;7.47;4.20;;;;;;;-0.88;100.00;99204.03;10461044;28;20428;-63
2023/01/18 04:19:22;;;;;;;7.22;3.97;;;;;;;-0.88;100.00;99200.53;10445850;28;20104;-63
2023/01/18 04:24:22;;;;;;;9.48;4.82;;;;;;;-0.81;100.00;99202.34;10473334;28;20037;-64
2023/01/18 04:29:22;;;;;;;5.80;4.25;;;;;;;-0.80;100.00;99206.69;10462535;28;20047;-63
2023/01/18 04:34:23;;;;;;;6.63;3.92;;;;;;;-0.74;100.00;99215.81;10460000;28;20037;-63
2023/01/18 04:39:23;;;;;;;8.88;4.78;;;;;;;-0.72;100.00;99209.31;10461556;28;20088;-63
2023/01/18 04:44:24;;;;;;;4.28;3.35;;;;;;;-0.66;100.00;99221.13;10441946;28;20382;-63
2023/01/18 04:49:26;;;;;;;12.98;5.13;;;;;;;-0.63;100.00;99212.00;10459373;28;20559;-63
2023/01/18 04:54:27;;;;;;;4.90;4.57;;;;;;;-0.66;100.00;99209.66;10459555;28;20465;-63
2023/01/18 04:59:27;;;;;;;6.70;4.88;;;;;;;-0.67;100.00;99219.47;10456614;28;20064;-63
2023/01/18 05:04:27;;;;;;;8.82;4.88;;;;;;;-0.66;100.00;99217.66;10458541;28;20029;-64
2023/01/18 05:09:28;;;;;;;5.05;3.92;;;;;;;-0.57;100.00;99214.00;10458844;28;20033;-63
2023/01/18 05:14:28;;;;;;;8.75;4.22;;;;;;;-0.38;100.00;99232.25;10458285;28;20064;-64
2023/01/18 05:19:29;;;;;;;4.00;3.60;;;;;;;-0.24;100.00;99223.56;10440833;28;20090;-63
2023/01/18 05:24:29;;;;;;;5.43;4.15;;;;;;;-0.07;100.00;99232.34;10458907;28;20065;-64
2023/01/18 05:29:30;;;;;;;4.82;3.60;;;;;;;0.06;100.00;99238.97;10458041;28;20428;-63
2023/01/18 05:34:30;;;;;;;6.43;3.90;;;;;;;0.05;100.00;99242.63;10440310;28;20029;-63
2023/01/18 05:39:31;;;;;;;10.18;4.82;;;;;;;-0.12;100.00;99245.34;10456894;28;20048;-63
2023/01/18 05:44:31;;;;;;;4.50;4.03;;;;;;;-0.17;100.00;99249.50;10439314;28;20037;-63
2023/01/18 05:49:31;;;;;;;5.22;4.22;;;;;;;-0.14;100.00;99249.16;10456901;28;20116;-63
2023/01/18 05:54:32;;;;;;;6.43;4.10;;;;;;;-0.11;100.00;99251.47;10440338;28;20033;-64
2023/01/18 05:59:32;;;;;;;12.63;4.15;;;;;;;-0.14;100.00;99260.63;10456646;28;20207;-63
2023/01/18 06:04:32;;;;;;;13.05;4.57;;;;;;;-0.22;100.00;99257.13;10456789;28;20045;-64
2023/01/18 06:09:33;;;;;;;3.53;3.22;;;;;;;-0.22;100.00;99267.78;10379594;28;20083;-65
2023/01/18 06:14:33;;;;;;;3.33;3.03;;;;;;;-0.19;100.00;99270.97;10452264;28;20032;-64
2023/01/18 06:19:34;;;;;;;5.85;4.15;;;;;;;-0.22;100.00;99283.75;10457333;28;20417;-63
2023/01/18 06:24:35;;;;;;;3.88;3.33;;;;;;;-0.24;100.00;99274.09;10437839;28;20061;-63
2023/01/18 06:29:35;;;;;;;10.02;4.22;;;;;;;-0.25;100.00;99279.63;10456905;28;20448;-64
2023/01/18 06:34:36;;;;;;;6.70;3.85;;;;;;;-0.36;100.00;99293.22;10437447;28;20075;-63
2023/01/18 06:39:38;;;;;;;3.35;3.13;;;;;;;-0.41;100.00;99295.59;10438324;28;20045;-64
2023/01/18 06:44:39;;;;;;;6.32;3.53;;;;;;;-0.29;100.00;99292.41;10456122;28;20036;-63
2023/01/18 06:49:40;;;;;;;6.38;3.30;;;;;;;-0.32;100.00;99299.88;10454863;28;20055;-63
2023/01/18 06:54:40;;;;;;;9.48;2.83;;;;;;;-0.37;100.00;99303.03;10455233;28;20040;-64
2023/01/18 06:59:41;;;;;;;7.05;4.07;;;;;;;-0.36;100.00;99306.53;10437828;28;20029;-64
2023/01/18 07:04:43;;;;;;;6.30;3.20;;;;;;;-0.37;100.00;99302.22;10455381;28;20033;-64
2023/01/18 07:09:43;;;;;;;3.38;3.08;;;;;;;-0.38;100.00;99317.34;10448918;28;20045;-65
2023/01/18 07:14:43;;;;;;;4.65;3.10;;;;;;;-0.24;100.00;99327.31;10433804;28;20033;-65
2023/01/18 07:19:44;;;;;;;5.85;3.60;;;;;;;-0.13;100.00;99339.44;10466448;28;20037;-64
2023/01/18 07:24:45;;;;;;;4.22;3.25;;;;;;;-0.06;100.00;99353.75;10481913;28;20025;-65
2023/01/18 07:29:45;;;;;;;4.05;3.05;;;;;;;-0.08;100.00;99347.75;10469619;28;20052;-63
2023/01/18 07:34:45;;;;;;;4.43;3.38;;;;;;;-0.01;100.00;99356.72;10501982;28;20059;-64
2023/01/18 07:39:46;;;;;;;6.43;4.82;;;;;;;-0.01;100.00;99361.22;10474074;28;20064;-64
2023/01/18 07:44:46;;;;;;;3.53;3.30;;;;;;;0.03;100.00;99362.53;10449922;28;20041;-65
2023/01/18 07:49:47;;;;;;;4.38;3.97;;;;;;;0.15;100.00;99371.03;10466657;28;20028;-66
2023/01/18 07:54:47;;;;;;;4.57;3.97;;;;;;;0.26;100.00;99376.03;10466047;28;20033;-68
2023/01/18 07:59:47;;;;;;;10.23;4.07;;;;;;;0.43;100.00;99385.63;10449070;28;20033;-66
2023/01/18 08:04:51;;;;;;;9.45;4.20;;;;;;;0.50;100.00;99383.13;10470587;28;20032;-64
2023/01/18 08:09:51;;;;;;;8.77;3.38;;;;;;;0.44;100.00;99389.13;10468884;28;20033;-63
2023/01/18 08:14:51;;;;;;;6.60;4.93;;;;;;;0.34;100.00;99401.78;10466341;28;20041;-64
2023/01/18 08:19:52;;;;;;;5.32;3.35;;;;;;;0.53;100.00;99401.41;10465839;28;20083;-64
2023/01/18 08:24:52;;;;;;;6.63;3.78;;;;;;;1.27;100.00;99407.31;10462426;28;20040;-65
2023/01/18 08:29:52;;;;;;;11.80;5.05;;;;;;;2.00;100.00;99413.22;10460287;28;20083;-63
2023/01/18 08:34:53;;;;;;;7.93;4.68;;;;;;;2.58;100.00;99411.69;10460143;28;20062;-63
2023/01/18 08:39:53;;;;;;;7.18;5.15;;;;;;;2.96;100.00;99417.78;10443505;28;20056;-63
2023/01/18 08:44:54;;;;;;;12.68;5.30;;;;;;;3.34;100.00;99425.69;10463359;28;20436;-64
2023/01/18 08:49:54;;;;;;;8.05;5.72;;;;;;;3.67;100.00;99430.59;10459082;28;20082;-64
2023/01/18 08:54:55;;;;;;;5.75;4.82;;;;;;;3.57;100.00;99430.06;10462009;28;20429;-63
2023/01/18 08:59:55;;;;;;;8.75;6.10;;;;;;;3.59;100.00;99441.44;10458895;28;20033;-64
2023/01/18 09:04:57;;;;;;;9.02;5.18;;;;;;;3.47;100.00;99449.94;10441597;28;20120;-63
2023/01/18 09:09:57;;;;;;;9.98;4.70;;;;;;;2.74;100.00;99456.97;10441238;28;20123;-64
2023/01/18 09:14:57;;;;;;;8.02;5.65;;;;;;;3.32;100.00;99453.66;10459559;28;20116;-64
2023/01/18 09:19:58;;;;;;;6.47;3.80;;;;;;;3.91;100.00;99459.72;10458014;28;20041;-63
2023/01/18 09:24:58;;;;;;;5.18;3.90;;;;;;;3.31;100.00;99465.38;10459089;28;20025;-63
2023/01/18 09:29:59;;;;;;;4.50;4.18;;;;;;;3.69;100.00;99466.06;10458786;28;20419;-63
2023/01/18 09:35:00;;;;;;;5.70;4.78;;;;;;;5.22;100.00;99473.56;10439268;28;20036;-64
2023/01/18 09:40:01;;;;;;;6.03;5.15;;;;;;;4.57;100.00;99466.72;10457629;28;20053;-63
2023/01/18 09:45:01;;;;;;;8.90;5.32;;;;;;;4.03;100.00;99467.25;10456272;28;20064;-64
2023/01/18 09:50:12;;;;;;;6.13;3.45;;;;;;;3.90;100.00;99463.41;10425430;28;20461;-64
2023/01/18 09:55:21;;;;;;;4.60;2.97;;;;;;;3.27;100.00;99467.59;10461310;28;20033;-63
2023/01/18 10:00:23;;;;;;;6.22;2.38;;;;;;;3.91;100.00;99475.78;10445542;28;20028;-63
2023/01/18 10:05:34;;;;;;;11.07;4.10;;;;;;;4.55;100.00;99468.75;10455141;28;20060;-63
2023/01/18 10:11:11;;;;;;;9.13;3.63;;;;;;;5.71;100.00;99477.94;10457288;28;20029;-63
2023/01/18 10:16:14;;;;;;;5.57;3.90;;;;;;;6.55;100.00;99486.63;10418223;28;20119;-65
2023/01/18 10:21:31;;;;;;;5.93;3.90;;;;;;;6.80;100.00;99490.38;10457028;28;20032;-63
2023/01/18 10:26:31;;;;;;;4.13;3.67;;;;;;;7.01;100.00;99499.25;10441746;28;20079;-64
2023/01/18 10:31:51;;;;;;;5.35;4.38;;;;;;;7.49;100.00;99494.38;10423428;28;20067;-62
2023/01/18 10:36:53;;;;;;;5.97;3.17;;;;;;;6.82;100.00;99490.97;10459832;28;20113;-63
2023/01/18 10:41:56;;;;;;;4.07;3.67;;;;;;;7.20;100.00;99498.38;10438989;28;20048;-63
2023/01/18 10:46:58;;;;;;;5.32;4.05;;;;;;;7.63;100.00;99496.00;10422243;28;20037;-63
2023/01/18 10:52:15;;;;;;;5.22;3.72;;;;;;;7.88;100.00;99489.88;10439017;28;20032;-63
2023/01/18 10:57:22;;;;;;;7.45;3.53;;;;;;;8.32;100.00;99496.28;10442578;28;20060;-64
2023/01/18 11:02:36;;;;;;;5.18;3.10;;;;;;;8.24;100.00;99499.25;10445542;28;20074;-64
2023/01/18 11:07:37;;;;;;;8.75;4.00;;;;;;;8.45;100.00;99496.22;10445281;28;20044;-63
2023/01/18 11:12:43;;;;;;;6.18;3.45;;;;;;;7.70;100.00;99490.59;10463779;28;20536;-63
2023/01/18 11:17:45;;;;;;;3.88;3.45;;;;;;;7.38;100.00;99514.72;10446017;28;20037;-63
2023/01/18 11:22:57;;;;;;;3.33;3.03;;;;;;;7.44;100.00;99505.78;10462341;28;20036;-64
2023/01/18 11:28:01;;;;;;;3.78;2.40;;;;;;;8.16;100.00;99498.44;10428499;28;20029;-63
2023/01/18 11:33:01;;;;;;;4.82;3.20;;;;;;;8.27;100.00;99506.91;10444068;28;20090;-63
2023/01/18 11:38:04;;;;;;;3.45;3.05;;;;;;;7.42;100.00;99515.13;10446500;28;20081;-64
2023/01/18 11:43:24;;;;;;;6.07;2.88;;;;;;;7.54;100.00;99507.22;10427854;28;20049;-62
2023/01/18 11:48:29;;;;;;;5.10;2.90;;;;;;;7.87;100.00;99505.22;10427527;28;20036;-65
2023/01/18 11:53:45;;;;;;;4.43;3.08;;;;;;;7.02;100.00;99512.50;10445834;28;20036;-63
2023/01/18 11:58:46;;;;;;;6.13;3.42;;;;;;;5.68;100.00;99521.31;10470581;28;20033;-64
2023/01/18 12:03:47;;;;;;;7.22;3.30;;;;;;;6.49;100.00;99501.72;10472491;28;20037;-63
2023/01/18 12:08:53;;;;;;;10.77;3.08;;;;;;;7.03;100.00;99508.78;10473994;28;20032;-66
2023/01/18 12:14:12;;;;;;;4.05;2.78;;;;;;;6.12;100.00;99514.66;10455846;28;20369;-64
2023/01/18 12:19:25;;;;;;;3.10;2.72;;;;;;;5.53;100.00;99531.34;10433884;28;20361;-64
2023/01/18 12:24:37;;;;;;;7.18;1.85;;;;;;;5.10;100.00;99539.53;10462290;28;20326;-63
2023/01/18 12:29:47;;;;;;;1.27;1.17;;;;;;;4.59;100.00;99534.38;10461065;28;20453;-63
2023/01/18 12:34:57;;;;;;;2.13;1.33;;;;;;;4.42;100.00;99509.69;10448090;28;20037;-64
2023/01/18 12:40:04;;;;;;;1.23;1.15;;;;;;;4.54;100.00;99523.41;10459728;28;20081;-63
2023/01/18 12:45:23;;;;;;;3.95;2.08;;;;;;;4.88;100.00;99519.97;10460441;28;20528;-64
2023/01/18 12:50:27;;;;;;;8.40;3.17;;;;;;;5.49;100.00;99525.56;10459418;28;20120;-64
2023/01/18 12:55:30;;;;;;;8.13;2.78;;;;;;;5.26;100.00;99517.75;10424106;28;20040;-64
2023/01/18 13:00:36;;;;;;;4.13;1.83;;;;;;;4.90;100.00;99515.25;10425984;28;20035;-63
2023/01/18 13:05:51;;;;;;;3.22;2.78;;;;;;;4.72;100.00;99515.72;10424955;28;20040;-63
2023/01/18 13:10:54;;;;;;;6.20;1.70;;;;;;;4.55;100.00;99515.16;10442580;28;20040;-63
2023/01/18 13:16:14;;;;;;;1.80;1.60;;;;;;;4.51;100.00;99518.44;10423955;28;20033;-63
2023/01/18 13:21:23;;;;;;;6.88;4.07;;;;;;;4.43;100.00;99528.28;10456510;28;20075;-63
2023/01/18 13:26:30;;;;;;;3.17;2.38;;;;;;;4.46;100.00;99531.56;10424971;28;20091;-64
2023/01/18 13:31:31;;;;;;;1.75;1.65;;;;;;;4.23;100.00;99532.59;10440969;28;20069;-64
2023/01/18 13:36:58;;;;;;;1.98;1.77;;;;;;;4.41;100.00;99537.53;10439596;28;20064;-63
2023/01/18 13:42:14;;;;;;;2.65;2.42;;;;;;;4.37;100.00;99553.16;10435650;28;20098;-64
2023/01/18 13:47:44;;;;;;;4.95;2.42;;;;;;;4.42;100.00;99566.78;10456999;28;20037;-64
2023/01/18 13:52:44;;;;;;;3.38;2.45;;;;;;;4.45;100.00;99567.44;10456206;28;20488;-63
2023/01/18 13:57:45;;;;;;;3.33;3.08;;;;;;;4.55;100.00;99565.28;10456417;28;20068;-64
2023/01/18 14:02:49;;;;;;;5.45;2.22;;;;;;;4.60;100.00;99574.41;10406215;28;20037;-63
2023/01/18 14:07:51;;;;;;;2.53;2.22;;;;;;;4.60;100.00;99581.63;10438457;28;20033;-63
2023/01/18 14:12:52;;;;;;;2.38;2.15;;;;;;;4.61;100.00;99578.75;10423103;28;20044;-63
2023/01/18 14:17:53;;;;;;;1.77;1.33;;;;;;;4.83;100.00;99584.13;10456126;28;20033;-65
2023/01/18 14:23:04;;;;;;;3.05;1.75;;;;;;;4.93;100.00;99581.94;10459110;28;20037;-64
2023/01/18 14:28:12;;;;;;;2.28;1.55;;;;;;;5.01;100.00;99584.47;10446085;28;20036;-63
2023/01/18 14:33:32;;;;;;;6.40;2.13;;;;;;;4.98;100.00;99586.69;10445381;28;20033;-64
2023/01/18 14:38:33;;;;;;;1.98;1.77;;;;;;;5.04;100.00;99597.50;10465131;28;20025;-64
2023/01/18 14:43:41;;;;;;;2.95;2.50;;;;;;;5.07;100.00;99601.63;10448322;28;20049;-63
2023/01/18 14:48:52;;;;;;;1.52;1.42;;;;;;;5.06;100.00;99610.72;10416099;28;20037;-64
2023/01/18 14:53:53;;;;;;;2.28;2.10;;;;;;;5.05;100.00;99620.63;10447142;28;20024;-63
2023/01/18 14:58:58;;;;;;;2.97;2.08;;;;;;;5.08;100.00;99619.41;10462362;28;20033;-63
2023/01/18 15:04:00;;;;;;;5.72;1.90;;;;;;;4.98;100.00;99627.78;10445325;28;20350;-65
2023/01/18 15:09:03;;;;;;;4.75;2.42;;;;;;;4.95;100.00;99636.22;10462614;28;20112;-64
2023/01/18 15:14:11;;;;;;;4.45;1.98;;;;;;;4.93;100.00;99640.94;10430201;28;20032;-63
2023/01/18 15:19:19;;;;;;;4.25;1.67;;;;;;;4.82;100.00;99644.97;10462608;28;20033;-64
2023/01/18 15:24:21;;;;;;;5.05;2.60;;;;;;;4.80;100.00;99646.19;10445746;28;20037;-64
2023/01/18 15:29:26;;;;;;;2.28;2.08;;;;;;;4.82;100.00;99655.69;10428192;28;20037;-62
2023/01/18 15:34:35;;;;;;;10.60;2.38;;;;;;;4.76;100.00;99650.28;10412421;28;20045;-63
2023/01/18 15:39:35;;;;;;;2.70;2.47;;;;;;;4.71;100.00;99647.31;10444557;28;20376;-66
2023/01/18 15:44:45;;;;;;;2.53;1.75;;;;;;;4.63;100.00;99651.78;10423240;28;20049;-65
2023/01/18 15:49:50;;;;;;;6.43;1.63;;;;;;;4.53;100.00;99664.66;10445670;28;20025;-65
2023/01/18 15:54:50;;;;;;;6.30;3.22;;;;;;;4.56;100.00;99666.97;10461922;28;20099;-63
2023/01/18 15:59:51;;;;;;;8.85;4.25;;;;;;;4.52;100.00;99662.16;10461022;28;20091;-64
2023/01/18 16:05:13;;;;;;;24.83;13.40;;;;;;;4.45;100.00;99661.25;10461178;28;20166;-63
2023/01/18 16:10:16;;;;;;;6.75;4.75;;;;;;;4.49;100.00;99673.25;10461344;28;20119;-63
2023/01/18 16:15:27;;;;;;;2.38;2.20;;;;;;;4.41;100.00;99680.41;10461151;28;20033;-63
2023/01/18 16:20:30;;;;;;;4.10;2.60;;;;;;;4.32;100.00;99669.97;10461334;28;20452;-63
2023/01/18 16:25:30;;;;;;;2.60;2.38;;;;;;;4.24;100.00;99695.00;10429299;28;20071;-64
2023/01/18 16:30:38;;;;;;;3.83;2.35;;;;;;;4.25;100.00;99690.50;10450657;28;20112;-63
2023/01/18 16:35:40;;;;;;;12.90;3.92;;;;;;;4.26;100.00;99698.34;10435568;28;20494;-63
2023/01/18 16:40:41;;;;;;;11.10;2.42;;;;;;;4.39;100.00;99705.72;10446872;28;20063;-64
2023/01/18 16:45:42;;;;;;;5.50;2.60;;;;;;;4.51;100.00;99714.94;10443631;28;20041;-64
2023/01/18 16:50:43;;;;;;;4.63;2.58;;;;;;;4.59;100.00;99714.84;10463942;28;20111;-64
2023/01/18 16:55:43;;;;;;;3.92;3.42;;;;;;;4.61;100.00;99722.69;10460039;28;20060;-64
2023/01/18 17:00:48;;;;;;;8.77;5.45;;;;;;;4.60;100.00;99731.78;10459199;28;20366;-63
2023/01/18 17:05:50;;;;;;;8.65;5.53;;;;;;;4.56;100.00;99722.41;10461458;28;20041;-64
2023/01/18 17:10:50;;;;;;;20.45;8.23;;;;;;;4.56;100.00;99725.97;10441465;28;20500;-64
2023/01/18 17:15:51;;;;;;;20.10;11.23;;;;;;;4.49;100.00;99737.59;10440476;28;20115;-64
2023/01/18 17:20:52;;;;;;;35.15;16.13;;;;;;;4.53;100.00;99749.59;10423270;28;20358;-64
2023/01/18 17:25:52;;;;;;;26.90;13.75;;;;;;;4.40;100.00;99759.16;10459787;28;20033;-63
2023/01/18 17:30:52;;;;;;;13.57;8.43;;;;;;;4.39;100.00;99764.69;10424336;28;20053;-64
2023/01/18 17:35:53;;;;;;;10.63;4.22;;;;;;;4.37;100.00;99769.38;10422954;28;20036;-65
2023/01/18 17:40:53;;;;;;;7.28;3.28;;;;;;;4.42;100.00;99777.72;10457622;28;20048;-64
2023/01/18 17:45:55;;;;;;;7.60;3.67;;;;;;;4.43;100.00;99782.91;10440648;28;20043;-64
2023/01/18 17:50:55;;;;;;;8.52;3.97;;;;;;;4.29;100.00;99774.84;10456487;28;20029;-63
2023/01/18 17:55:56;;;;;;;6.82;3.55;;;;;;;4.22;100.00;99780.13;10457205;28;20094;-64
2023/01/18 18:01:11;;;;;;;15.38;3.97;;;;;;;4.14;100.00;99791.75;10456889;28;20036;-63
2023/01/18 18:06:15;;;;;;;5.47;3.33;;;;;;;3.94;100.00;99791.44;10438851;28;20396;-64
2023/01/18 18:11:16;;;;;;;11.18;3.70;;;;;;;3.91;100.00;99809.72;10439234;28;20448;-64
2023/01/18 18:16:16;;;;;;;10.55;3.03;;;;;;;3.94;100.00;99801.31;10456010;28;20123;-64
2023/01/18 18:21:17;;;;;;;5.88;2.30;;;;;;;4.06;100.00;99789.16;10456423;28;20514;-64
2023/01/18 18:26:17;;;;;;;13.23;3.92;;;;;;;4.10;100.00;99805.69;10456128;28;20037;-63
2023/01/18 18:31:19;;;;;;;3.90;3.53;;;;;;;4.09;100.00;99817.44;10438746;28;20040;-63
2023/01/18 18:36:21;;;;;;;15.95;3.70;;;;;;;4.23;100.00;99821.97;10456675;28;20043;-64
2023/01/18 18:41:21;;;;;;;8.35;3.25;;;;;;;4.31;100.00;99824.59;10456410;28;20428;-63
2023/01/18 18:46:22;;;;;;;7.75;3.67;;;;;;;4.37;100.00;99831.91;10455919;28;20052;-63
2023/01/18 18:51:23;;;;;;;16.15;3.83;;;;;;;4.30;100.00;99832.78;10437947;28;20094;-63
2023/01/18 18:56:23;;;;;;;15.75;4.72;;;;;;;4.15;100.00;99838.16;10438651;28;20040;-62
2023/01/18 19:01:25;;;;;;;11.60;4.47;;;;;;;4.24;100.00;99845.06;10457054;28;20063;-63
2023/01/18 19:06:25;;;;;;;11.20;3.17;;;;;;;4.39;100.00;99837.88;10437918;28;20051;-63
2023/01/18 19:11:26;;;;;;;5.35;3.28;;;;;;;4.38;100.00;99849.63;10420440;28;20035;-63
2023/01/18 19:16:26;;;;;;;7.13;3.25;;;;;;;4.29;100.00;99858.75;10455641;28;20100;-63
2023/01/18 19:21:27;;;;;;;8.68;3.53;;;;;;;4.09;100.00;99865.66;10462683;28;20056;-63
2023/01/18 19:26:27;;;;;;;3.97;2.33;;;;;;;3.89;100.00;99870.66;10462786;28;20388;-63
2023/01/18 19:31:27;;;;;;;5.38;2.92;;;;;;;3.77;100.00;99877.47;10427666;28;20063;-64
2023/01/18 19:36:28;;;;;;;5.72;2.60;;;;;;;3.78;100.00;99866.56;10462262;28;20048;-63
2023/01/18 19:41:29;;;;;;;7.65;2.42;;;;;;;3.86;100.00;99869.19;10461187;28;20452;-63
2023/01/18 19:46:29;;;;;;;11.48;3.00;;;;;;;3.79;100.00;99880.78;10461829;28;20072;-63
2023/01/18 19:51:30;;;;;;;13.85;3.83;;;;;;;3.71;100.00;99877.16;10461771;28;20052;-62
2023/01/18 19:56:31;;;;;;;4.35;3.55;;;;;;;3.77;100.00;99896.22;10445057;28;20527;-63
2023/01/18 20:01:31;;;;;;;8.10;4.00;;;;;;;3.79;100.00;99892.31;10462237;28;20145;-63
2023/01/18 20:06:32;;;;;;;14.40;4.32;;;;;;;3.92;100.00;99881.88;10460529;28;20033;-64
2023/01/18 20:11:32;;;;;;;16.58;3.95;;;;;;;4.16;100.00;99893.41;10460953;28;20051;-64
2023/01/18 20:16:33;;;;;;;7.95;3.20;;;;;;;4.30;100.00;99887.22;10461150;28;20037;-65
2023/01/18 20:21:33;;;;;;;5.80;3.60;;;;;;;4.43;100.00;99895.50;10442207;28;20441;-63
2023/01/18 20:26:33;;;;;;;7.35;2.58;;;;;;;4.53;100.00;99887.19;10463201;28;20041;-63
2023/01/18 20:31:37;;;;;;;2.83;2.53;;;;;;;4.54;100.00;99877.28;10443203;28;20060;-63
2023/01/18 20:36:38;;;;;;;2.70;2.30;;;;;;;4.60;100.00;99889.97;10442695;28;20035;-64
2023/01/18 20:41:38;;;;;;;4.47;2.65;;;;;;;4.68;100.00;99892.53;10460068;28;20049;-65
2023/01/18 20:46:39;;;;;;;12.85;3.78;;;;;;;4.63;100.00;99905.69;10459819;28;20393;-63
2023/01/18 20:51:40;;;;;;;11.00;4.18;;;;;;;4.43;100.00;99908.03;10460841;28;20037;-64
2023/01/18 20:56:40;;;;;;;8.88;3.72;;;;;;;4.47;100.00;99912.03;10459192;28;20487;-62
2023/01/18 21:01:41;;;;;;;8.70;4.10;;;;;;;4.48;100.00;99919.06;10458922;28;20032;-64
2023/01/18 21:06:43;;;;;;;6.40;3.28;;;;;;;4.48;100.00;99920.91;10458902;28;20036;-63
2023/01/18 21:11:44;;;;;;;7.15;4.10;;;;;;;4.51;100.00;99932.09;10458645;28;20029;-62
2023/01/18 21:16:44;;;;;;;11.35;4.38;;;;;;;4.52;100.00;99931.06;10458457;28;20495;-62
2023/01/18 21:21:44;;;;;;;7.22;3.75;;;;;;;4.49;100.00;99931.44;10458150;28;20033;-64
2023/01/18 21:26:45;;;;;;;19.15;4.00;;;;;;;4.45;100.00;99942.72;10439747;28;20037;-63
2023/01/18 21:31:45;;;;;;;15.18;3.40;;;;;;;4.43;100.00;99942.88;10440215;28;20472;-62
2023/01/18 21:36:45;;;;;;;3.42;2.70;;;;;;;4.37;100.00;99947.16;10439830;28;20102;-63
2023/01/18 21:47:05;;;;;;;4.30;2.67;;;;;;;4.14;100.00;99955.19;10457289;28;20045;-63
2023/01/18 21:57:24;;;;;;;9.52;3.63;;;;;;;4.13;100.00;99966.91;10457088;28;20072;-63
2023/01/18 22:02:24;;;;;;;6.03;3.40;;;;;;;4.13;100.00;99952.69;10456932;28;20064;-63
2023/01/18 22:07:30;;;;;;;4.00;2.97;;;;;;;4.17;100.00;99967.38;10458197;28;20091;-64
2023/01/18 22:12:31;;;;;;;7.93;3.00;;;;;;;4.22;100.00;99958.84;10470358;28;20028;-65
2023/01/18 22:17:31;;;;;;;6.82;3.10;;;;;;;4.29;100.00;99965.97;10459040;28;20033;-64
2023/01/18 22:22:32;;;;;;;8.73;3.80;;;;;;;4.31;100.00;99963.13;10459316;28;20029;-64
2023/01/18 22:27:33;;;;;;;5.53;3.60;;;;;;;4.30;100.00;99978.34;10457111;28;20110;-63
2023/01/18 22:32:33;;;;;;;7.03;4.18;;;;;;;4.33;100.00;99979.84;10456527;28;20428;-63
2023/01/18 22:37:34;;;;;;;7.25;2.72;;;;;;;4.33;100.00;99971.78;10439057;28;20048;-63
2023/01/18 22:42:35;;;;;;;4.15;2.70;;;;;;;4.28;100.00;99977.72;10455646;28;20056;-64
2023/01/18 22:47:36;;;;;;;8.88;3.50;;;;;;;4.22;100.00;99975.75;10456019;28;20040;-62
2023/01/18 22:52:36;;;;;;;11.10;3.72;;;;;;;4.33;100.00;99991.38;10459766;28;20041;-63
2023/01/18 22:57:36;;;;;;;4.90;2.55;;;;;;;4.36;100.00;99980.31;10463944;28;20072;-63
2023/01/18 23:02:37;;;;;;;7.65;3.22;;;;;;;4.39;100.00;99987.16;10464284;28;20098;-63
2023/01/18 23:07:37;;;;;;;6.55;2.47;;;;;;;4.37;100.00;99984.69;10463552;28;20048;-63
2023/01/18 23:12:38;;;;;;;9.68;3.78;;;;;;;4.32;100.00;99984.38;10464176;28;20099;-64
2023/01/18 23:17:38;;;;;;;10.07;3.90;;;;;;;4.31;100.00;99987.25;10464037;28;20448;-62
2023/01/18 23:22:38;;;;;;;6.97;3.22;;;;;;;4.37;100.00;99978.44;10445351;28;20086;-63
2023/01/18 23:27:39;;;;;;;9.80;3.35;;;;;;;4.41;100.00;99987.81;10463494;28;20033;-63
2023/01/18 23:32:39;;;;;;;7.85;2.95;;;;;;;4.37;100.00;99983.81;10448530;28;20508;-63
2023/01/18 23:37:40;;;;;;;13.50;2.70;;;;;;;4.25;100.00;99980.75;10445258;28;20029;-63
2023/01/18 23:58:48;;;;;;;1.95;1.83;;;;;;;4.27;100.00;100002.81;10461084;28;20041;-63
